createdAt,value
2022-08-22T00:03:39.399Z,97025.34
2022-08-22T00:08:50.310Z,97133.41
2022-08-22T00:14:02.181Z,97171.81
2022-08-22T00:19:30.118Z,97118.50
2022-08-22T00:24:33.252Z,97169.06
2022-08-22T00:29:48.437Z,97168.22
2022-08-22T00:35:06.372Z,97159.72
2022-08-22T00:40:18.722Z,97155.22
2022-08-22T00:45:34.667Z,97151.44
2022-08-22T00:51:14.681Z,97157.47
2022-08-22T00:56:42.599Z,97157.81
2022-08-22T01:01:53.379Z,97101.38
2022-08-22T01:07:37.853Z,97185.34
2022-08-22T01:12:48.920Z,97167.03
2022-08-22T01:18:30.248Z,97161.69
2022-08-22T01:23:48.180Z,97167.44
2022-08-22T01:29:33.375Z,97164.91
2022-08-22T01:34:54.746Z,97158.69
2022-08-22T01:40:36.445Z,97159.22
2022-08-22T01:46:24.844Z,97167.91
2022-08-22T01:51:51.032Z,97172.47
2022-08-22T01:57:01.983Z,97173.66
2022-08-22T02:02:32.973Z,97158.53
2022-08-22T02:07:49.363Z,97162.75
2022-08-22T02:13:10.391Z,97152.69
2022-08-22T02:18:23.915Z,97159.75
2022-08-22T02:23:49.554Z,97156.84
2022-08-22T02:29:15.594Z,97159.22
2022-08-22T02:34:42.013Z,97149.34
2022-08-22T02:40:07.887Z,97150.50
2022-08-22T02:45:23.669Z,97147.44
2022-08-22T02:50:48.315Z,97105.09
2022-08-22T02:55:59.902Z,97085.25
2022-08-22T03:01:24.505Z,97134.81
2022-08-22T03:12:45.676Z,97130.34
2022-08-22T03:17:56.344Z,97133.41
2022-08-22T03:23:08.175Z,97118.91
2022-08-22T03:28:16.859Z,97129.09
2022-08-22T03:33:22.398Z,97136.00
2022-08-22T03:38:45.497Z,97124.41
2022-08-22T03:44:16.456Z,97124.72
2022-08-22T03:49:34.182Z,97136.88
2022-08-22T03:55:06.230Z,97136.56
2022-08-22T04:00:32.722Z,97087.94
2022-08-22T04:05:38.826Z,97132.06
2022-08-22T04:11:02.595Z,97146.06
2022-08-22T04:16:42.487Z,97141.56
2022-08-22T04:22:22.978Z,97144.56
2022-08-22T04:27:38.603Z,97149.06
2022-08-22T04:32:48.274Z,97147.78
2022-08-22T04:38:09.290Z,97157.38
2022-08-22T04:43:59.766Z,97152.38
2022-08-22T04:49:13.406Z,97016.69
2022-08-22T04:54:54.280Z,97169.66
2022-08-22T05:00:17.383Z,97136.88
2022-08-22T05:05:26.833Z,97173.28
2022-08-22T05:10:41.418Z,97111.06
2022-08-22T05:15:49.828Z,97126.75
2022-08-22T05:20:54.849Z,97008.84
2022-08-22T05:26:03.347Z,96973.66
2022-08-22T05:31:24.808Z,97167.75
2022-08-22T05:36:31.428Z,97093.22
2022-08-22T05:41:38.774Z,97116.50
2022-08-22T05:46:44.972Z,97045.75
2022-08-22T05:52:10.836Z,97153.06
2022-08-22T05:57:38.137Z,97130.63
2022-08-22T06:02:59.846Z,97124.34
2022-08-22T06:08:15.553Z,97120.75
2022-08-22T06:13:35.904Z,97125.53
2022-08-22T06:18:42.439Z,97109.53
2022-08-22T06:23:57.660Z,97033.88
2022-08-22T06:29:02.631Z,97109.25
2022-08-22T06:34:12.088Z,97099.84
2022-08-22T06:39:30.975Z,96957.50
2022-08-22T06:44:38.945Z,97085.28
2022-08-22T06:49:46.653Z,97097.38
2022-08-22T06:54:58.138Z,97071.28
2022-08-22T07:00:10.653Z,97016.13
2022-08-22T07:05:19.063Z,96975.72
2022-08-22T07:10:23.951Z,97092.38
2022-08-22T07:15:36.223Z,97093.84
2022-08-22T07:20:46.788Z,97082.50
2022-08-22T07:26:11.912Z,97080.50
2022-08-22T07:31:45.431Z,97017.25
2022-08-22T07:37:04.280Z,96918.56
2022-08-22T07:42:19.723Z,97018.81
2022-08-22T07:47:26.118Z,97054.91
2022-08-22T07:52:37.415Z,97069.75
2022-08-22T07:57:44.115Z,97038.94
2022-08-22T08:02:51.718Z,96957.03
2022-08-22T08:07:57.379Z,96918.91
2022-08-22T08:13:05.611Z,97069.50
2022-08-22T08:18:20.066Z,97078.91
2022-08-22T08:23:25.858Z,96968.44
2022-08-22T08:28:35.367Z,96930.25
2022-08-22T08:33:42.050Z,97062.66
2022-08-22T08:38:54.141Z,97063.50
2022-08-22T08:44:17.992Z,96970.06
2022-08-22T08:49:42.789Z,97059.84
2022-08-22T09:09:13.687Z,97053.91
2022-08-22T09:19:27.995Z,96984.41
2022-08-22T09:24:48.101Z,97043.88
2022-08-22T09:30:08.740Z,97015.69
2022-08-22T09:35:33.389Z,97035.78
2022-08-22T09:40:46.269Z,97032.88
2022-08-22T09:46:02.398Z,97033.03
2022-08-22T09:51:31.456Z,96988.66
2022-08-22T09:57:02.533Z,97044.00
2022-08-22T10:02:55.303Z,96981.19
2022-08-22T10:08:26.311Z,97052.13
2022-08-22T10:14:00.707Z,97050.69
2022-08-22T10:19:38.554Z,97053.28
2022-08-22T10:24:51.881Z,96883.59
2022-08-22T10:30:16.362Z,96958.09
2022-08-22T10:35:44.225Z,97024.56
2022-08-22T10:40:52.947Z,97025.50
2022-08-22T10:46:04.637Z,97010.28
2022-08-22T10:51:19.533Z,97021.81
2022-08-22T10:56:43.822Z,97030.56
2022-08-22T11:02:02.695Z,96939.13
2022-08-22T11:07:39.408Z,97027.38
2022-08-22T11:13:09.823Z,96949.28
2022-08-22T11:18:34.579Z,96956.06
2022-08-22T11:23:45.511Z,97018.69
2022-08-22T11:29:02.759Z,97019.03
2022-08-22T11:34:31.981Z,97008.03
2022-08-22T11:39:47.959Z,96968.88
2022-08-22T11:44:59.294Z,97014.25
2022-08-22T11:50:42.202Z,97005.75
2022-08-22T11:56:12.807Z,97009.50
2022-08-22T12:01:20.900Z,96843.84
2022-08-22T12:06:56.362Z,96990.75
2022-08-22T12:12:18.146Z,97009.31
2022-08-22T12:18:01.363Z,97001.66
2022-08-22T12:23:40.793Z,96999.56
2022-08-22T12:29:15.572Z,96993.78
2022-08-22T12:34:30.375Z,96966.84
2022-08-22T12:39:36.338Z,96997.00
2022-08-22T12:44:59.140Z,96983.81
2022-08-22T12:50:25.964Z,96983.16
2022-08-22T12:55:46.646Z,96988.72
2022-08-22T13:00:50.985Z,96966.16
2022-08-22T13:06:00.495Z,96988.38
2022-08-22T13:11:12.452Z,96969.16
2022-08-22T13:16:35.435Z,96885.69
2022-08-22T13:21:48.369Z,96978.19
2022-08-22T13:27:01.586Z,96834.00
2022-08-22T13:32:05.377Z,96806.41
2022-08-22T13:37:15.716Z,96784.00
2022-08-22T13:42:30.462Z,96962.78
2022-08-22T13:47:39.487Z,96960.47
2022-08-22T13:53:07.403Z,96937.78
2022-08-22T13:58:45.005Z,96894.50
2022-08-22T14:03:55.418Z,96771.03
2022-08-22T14:09:08.595Z,96764.72
2022-08-22T14:14:11.904Z,96871.06
2022-08-22T14:19:32.303Z,96966.28
2022-08-22T14:25:21.309Z,96922.94
2022-08-22T14:30:29.215Z,96920.59
2022-08-22T14:35:38.177Z,96960.78
2022-08-22T14:40:43.097Z,96932.59
2022-08-22T14:45:55.010Z,96943.00
2022-08-22T14:51:03.883Z,96953.16
2022-08-22T14:56:11.268Z,96949.63
2022-08-22T15:01:17.886Z,96942.47
2022-08-22T15:06:37.063Z,96888.53
2022-08-22T15:11:42.286Z,96751.25
2022-08-22T15:17:08.205Z,96900.03
2022-08-22T15:22:25.915Z,96930.97
2022-08-22T15:27:33.789Z,96931.81
2022-08-22T15:32:42.958Z,96930.84
2022-08-22T15:38:11.254Z,96919.44
2022-08-22T15:43:28.828Z,96922.75
2022-08-22T15:48:41.018Z,96914.84
2022-08-22T15:53:44.093Z,96913.59
2022-08-22T15:59:27.190Z,96782.03
2022-08-22T16:04:50.373Z,96890.19
2022-08-22T16:09:57.860Z,96915.72
2022-08-22T16:15:06.020Z,96789.22
2022-08-22T16:25:17.062Z,96717.53
2022-08-22T16:30:33.598Z,96926.06
2022-08-22T16:36:14.252Z,96923.34
2022-08-22T16:41:44.510Z,96800.78
2022-08-22T16:46:49.607Z,96859.63
2022-08-22T16:52:27.380Z,96934.41
2022-08-22T16:58:06.009Z,96881.91
2022-08-22T17:03:19.411Z,96940.41
2022-08-22T17:08:25.985Z,96947.47
2022-08-22T17:13:48.754Z,96881.78
2022-08-22T17:19:01.898Z,96949.28
2022-08-22T17:24:33.714Z,96945.66
2022-08-22T17:29:58.086Z,96973.09
2022-08-22T17:35:17.332Z,96949.53
2022-08-22T17:40:37.703Z,96893.41
2022-08-22T17:45:55.233Z,96973.25
2022-08-22T17:51:03.954Z,96980.56
2022-08-22T17:56:25.783Z,96979.00
2022-08-22T18:01:43.695Z,96996.25
2022-08-22T18:06:59.769Z,96962.94
2022-08-22T18:12:27.138Z,96993.25
2022-08-22T18:17:40.403Z,96829.75
2022-08-22T18:23:04.997Z,97027.41
2022-08-22T18:28:45.702Z,96976.13
2022-08-22T18:33:59.795Z,96849.28
2022-08-22T18:39:10.478Z,97048.25
2022-08-22T18:44:38.547Z,96997.81
2022-08-22T18:49:54.991Z,97034.06
2022-08-22T18:55:19.431Z,97071.63
2022-08-22T19:00:27.673Z,97070.06
2022-08-22T19:05:46.200Z,97074.66
2022-08-22T19:11:04.352Z,97076.94
2022-08-22T19:16:07.622Z,97075.91
2022-08-22T19:21:37.686Z,97036.94
2022-08-22T19:26:44.600Z,97071.50
2022-08-22T19:31:51.639Z,97066.28
2022-08-22T19:37:30.523Z,97078.16
2022-08-22T19:42:39.200Z,97049.66
2022-08-22T19:47:53.644Z,97096.03
2022-08-22T19:53:02.543Z,97037.31
2022-08-22T19:58:20.950Z,97043.19
2022-08-22T20:04:04.918Z,97097.41
2022-08-22T20:09:46.197Z,97105.38
2022-08-22T20:14:50.280Z,97111.47
2022-08-22T20:25:41.512Z,97088.19
2022-08-22T20:30:47.899Z,97104.41
2022-08-22T20:35:59.954Z,97059.41
2022-08-22T20:41:26.982Z,97106.38
2022-08-22T20:46:46.603Z,97101.84
2022-08-22T20:52:06.446Z,97102.41
2022-08-22T20:57:16.852Z,97099.91
2022-08-22T21:02:25.177Z,97095.38
2022-08-22T21:07:40.785Z,97071.41
2022-08-22T21:12:44.014Z,97027.53
2022-08-22T21:17:47.364Z,97005.09
2022-08-22T21:22:51.328Z,97104.16
2022-08-22T21:27:55.877Z,97095.75
2022-08-22T21:32:59.134Z,97088.75
2022-08-22T21:38:03.078Z,97026.31
2022-08-22T21:43:07.991Z,97107.25
2022-08-22T21:48:33.981Z,97104.66
2022-08-22T21:53:37.000Z,97039.94
2022-08-22T21:58:43.189Z,97111.88
2022-08-22T22:03:46.413Z,97121.78
2022-08-22T22:08:50.859Z,97098.63
2022-08-22T22:13:54.211Z,96986.78
2022-08-22T22:18:58.051Z,96944.72
2022-08-22T22:24:01.155Z,97092.50
2022-08-22T22:29:04.879Z,97124.75
2022-08-22T22:34:08.131Z,97124.94
2022-08-22T22:39:11.733Z,96981.25
2022-08-22T22:44:14.883Z,97103.56
2022-08-22T22:49:19.440Z,97098.84
2022-08-22T22:54:27.209Z,97134.66
2022-08-22T22:59:30.687Z,96960.34
2022-08-22T23:04:37.985Z,97144.16
2022-08-22T23:09:44.781Z,97087.59
2022-08-22T23:14:48.458Z,96943.56
2022-08-22T23:19:52.318Z,96972.97
2022-08-22T23:24:55.591Z,97138.84
2022-08-22T23:29:58.976Z,97005.72
2022-08-22T23:35:01.959Z,97099.09
2022-08-22T23:40:08.805Z,97142.81
2022-08-22T23:45:12.038Z,97147.22
2022-08-22T23:50:15.391Z,97128.53
2022-08-22T23:55:19.335Z,97124.75
